sensor_id;sensor_type;location;lat;lon;timestamp;P1;durP1;ratioP1;P2;durP2;ratioP2
56269;SDS011;42176;43.240;27.880;2023-06-04T00:02:12;8.05;;;5.00;;
56269;SDS011;42176;43.240;27.880;2023-06-04T00:04:38;5.78;;;3.97;;
56269;SDS011;42176;43.240;27.880;2023-06-04T00:07:04;9.50;;;4.22;;
56269;SDS011;42176;43.240;27.880;2023-06-04T00:09:30;5.82;;;4.72;;
56269;SDS011;42176;43.240;27.880;2023-06-04T00:11:55;7.32;;;4.10;;
56269;SDS011;42176;43.240;27.880;2023-06-04T00:14:21;9.40;;;4.03;;
56269;SDS011;42176;43.240;27.880;2023-06-04T00:16:46;9.07;;;6.25;;
56269;SDS011;42176;43.240;27.880;2023-06-04T00:19:12;11.07;;;5.63;;
56269;SDS011;42176;43.240;27.880;2023-06-04T00:21:37;15.25;;;6.03;;
56269;SDS011;42176;43.240;27.880;2023-06-04T00:24:03;10.52;;;6.18;;
56269;SDS011;42176;43.240;27.880;2023-06-04T00:26:28;12.40;;;5.90;;
56269;SDS011;42176;43.240;27.880;2023-06-04T00:28:54;6.40;;;5.40;;
56269;SDS011;42176;43.240;27.880;2023-06-04T00:31:20;10.45;;;5.55;;
56269;SDS011;42176;43.240;27.880;2023-06-04T00:33:46;11.32;;;5.78;;
56269;SDS011;42176;43.240;27.880;2023-06-04T00:36:15;11.45;;;5.60;;
56269;SDS011;42176;43.240;27.880;2023-06-04T00:38:40;10.27;;;5.82;;
56269;SDS011;42176;43.240;27.880;2023-06-04T00:41:06;6.78;;;5.28;;
56269;SDS011;42176;43.240;27.880;2023-06-04T00:43:31;6.05;;;5.13;;
56269;SDS011;42176;43.240;27.880;2023-06-04T00:45:57;6.75;;;5.20;;
56269;SDS011;42176;43.240;27.880;2023-06-04T00:48:23;10.70;;;5.47;;
56269;SDS011;42176;43.240;27.880;2023-06-04T00:50:52;6.28;;;4.88;;
56269;SDS011;42176;43.240;27.880;2023-06-04T00:53:19;10.85;;;5.25;;
56269;SDS011;42176;43.240;27.880;2023-06-04T00:55:45;9.68;;;4.40;;
56269;SDS011;42176;43.240;27.880;2023-06-04T00:58:11;10.43;;;4.93;;
56269;SDS011;42176;43.240;27.880;2023-06-04T01:00:37;5.00;;;3.40;;
56269;SDS011;42176;43.240;27.880;2023-06-04T01:03:03;3.20;;;2.85;;
56269;SDS011;42176;43.240;27.880;2023-06-04T01:05:35;8.75;;;4.15;;
56269;SDS011;42176;43.240;27.880;2023-06-04T01:08:05;4.80;;;2.75;;
56269;SDS011;42176;43.240;27.880;2023-06-04T01:10:34;6.75;;;3.83;;
56269;SDS011;42176;43.240;27.880;2023-06-04T01:13:00;9.65;;;3.80;;
56269;SDS011;42176;43.240;27.880;2023-06-04T01:15:26;7.72;;;4.30;;
56269;SDS011;42176;43.240;27.880;2023-06-04T01:17:53;11.25;;;4.82;;
56269;SDS011;42176;43.240;27.880;2023-06-04T01:23:26;6.68;;;3.58;;
56269;SDS011;42176;43.240;27.880;2023-06-04T01:26:02;7.55;;;3.50;;
56269;SDS011;42176;43.240;27.880;2023-06-04T01:28:30;6.05;;;3.53;;
56269;SDS011;42176;43.240;27.880;2023-06-04T01:30:57;3.90;;;3.42;;
56269;SDS011;42176;43.240;27.880;2023-06-04T01:33:25;7.03;;;3.78;;
56269;SDS011;42176;43.240;27.880;2023-06-04T01:35:51;6.78;;;3.90;;
56269;SDS011;42176;43.240;27.880;2023-06-04T01:38:16;4.65;;;3.65;;
56269;SDS011;42176;43.240;27.880;2023-06-04T01:40:43;7.03;;;3.90;;
56269;SDS011;42176;43.240;27.880;2023-06-04T01:43:08;11.70;;;4.38;;
56269;SDS011;42176;43.240;27.880;2023-06-04T01:45:34;7.65;;;3.95;;
56269;SDS011;42176;43.240;27.880;2023-06-04T01:48:03;5.85;;;4.38;;
56269;SDS011;42176;43.240;27.880;2023-06-04T01:50:30;7.95;;;3.88;;
56269;SDS011;42176;43.240;27.880;2023-06-04T01:52:56;8.32;;;3.90;;
56269;SDS011;42176;43.240;27.880;2023-06-04T01:55:21;4.72;;;3.53;;
56269;SDS011;42176;43.240;27.880;2023-06-04T01:57:47;6.20;;;3.10;;
56269;SDS011;42176;43.240;27.880;2023-06-04T02:00:13;7.63;;;3.30;;
56269;SDS011;42176;43.240;27.880;2023-06-04T02:02:40;6.57;;;3.38;;
56269;SDS011;42176;43.240;27.880;2023-06-04T02:05:07;4.53;;;2.92;;
56269;SDS011;42176;43.240;27.880;2023-06-04T02:07:33;5.85;;;3.05;;
56269;SDS011;42176;43.240;27.880;2023-06-04T02:10:13;6.32;;;2.88;;
56269;SDS011;42176;43.240;27.880;2023-06-04T02:12:40;7.70;;;2.63;;
56269;SDS011;42176;43.240;27.880;2023-06-04T02:15:18;4.65;;;2.83;;
56269;SDS011;42176;43.240;27.880;2023-06-04T02:17:43;3.28;;;2.40;;
56269;SDS011;42176;43.240;27.880;2023-06-04T02:20:10;4.15;;;2.63;;
56269;SDS011;42176;43.240;27.880;2023-06-04T02:22:36;5.35;;;2.08;;
56269;SDS011;42176;43.240;27.880;2023-06-04T02:25:02;4.45;;;2.38;;
56269;SDS011;42176;43.240;27.880;2023-06-04T02:27:27;7.30;;;3.03;;
56269;SDS011;42176;43.240;27.880;2023-06-04T02:29:53;3.75;;;2.15;;
56269;SDS011;42176;43.240;27.880;2023-06-04T02:32:18;6.88;;;2.50;;
56269;SDS011;42176;43.240;27.880;2023-06-04T02:34:44;3.85;;;2.22;;
56269;SDS011;42176;43.240;27.880;2023-06-04T02:37:09;5.65;;;2.75;;
56269;SDS011;42176;43.240;27.880;2023-06-04T02:39:35;2.78;;;2.13;;
56269;SDS011;42176;43.240;27.880;2023-06-04T02:42:00;5.40;;;2.05;;
56269;SDS011;42176;43.240;27.880;2023-06-04T02:44:26;11.60;;;2.58;;
56269;SDS011;42176;43.240;27.880;2023-06-04T02:46:51;4.68;;;2.35;;
56269;SDS011;42176;43.240;27.880;2023-06-04T02:49:16;4.57;;;2.53;;
56269;SDS011;42176;43.240;27.880;2023-06-04T02:51:43;5.32;;;2.10;;
56269;SDS011;42176;43.240;27.880;2023-06-04T02:54:09;6.45;;;2.33;;
56269;SDS011;42176;43.240;27.880;2023-06-04T02:56:35;4.53;;;1.65;;
56269;SDS011;42176;43.240;27.880;2023-06-04T02:59:02;3.22;;;2.05;;
56269;SDS011;42176;43.240;27.880;2023-06-04T03:01:27;8.32;;;3.75;;
56269;SDS011;42176;43.240;27.880;2023-06-04T03:03:53;4.25;;;2.25;;
56269;SDS011;42176;43.240;27.880;2023-06-04T03:06:20;2.63;;;2.20;;
56269;SDS011;42176;43.240;27.880;2023-06-04T03:08:47;13.77;;;2.70;;
56269;SDS011;42176;43.240;27.880;2023-06-04T03:11:13;4.93;;;2.30;;
56269;SDS011;42176;43.240;27.880;2023-06-04T03:13:39;5.03;;;2.10;;
56269;SDS011;42176;43.240;27.880;2023-06-04T03:16:05;4.82;;;2.50;;
56269;SDS011;42176;43.240;27.880;2023-06-04T03:18:39;7.50;;;2.38;;
56269;SDS011;42176;43.240;27.880;2023-06-04T03:21:05;3.40;;;2.28;;
56269;SDS011;42176;43.240;27.880;2023-06-04T03:23:31;4.05;;;1.77;;
56269;SDS011;42176;43.240;27.880;2023-06-04T03:25:58;8.70;;;2.20;;
56269;SDS011;42176;43.240;27.880;2023-06-04T03:28:23;3.03;;;2.08;;
56269;SDS011;42176;43.240;27.880;2023-06-04T03:30:49;3.15;;;1.88;;
56269;SDS011;42176;43.240;27.880;2023-06-04T03:33:14;5.25;;;2.20;;
56269;SDS011;42176;43.240;27.880;2023-06-04T03:35:40;2.42;;;1.70;;
56269;SDS011;42176;43.240;27.880;2023-06-04T03:38:06;7.03;;;2.70;;
56269;SDS011;42176;43.240;27.880;2023-06-04T03:40:32;5.80;;;2.63;;
56269;SDS011;42176;43.240;27.880;2023-06-04T03:42:57;4.03;;;2.80;;
56269;SDS011;42176;43.240;27.880;2023-06-04T03:45:23;4.50;;;2.17;;
56269;SDS011;42176;43.240;27.880;2023-06-04T03:47:48;5.97;;;3.08;;
56269;SDS011;42176;43.240;27.880;2023-06-04T03:50:13;4.07;;;2.78;;
56269;SDS011;42176;43.240;27.880;2023-06-04T03:52:39;5.38;;;2.70;;
56269;SDS011;42176;43.240;27.880;2023-06-04T03:55:05;5.30;;;2.80;;
56269;SDS011;42176;43.240;27.880;2023-06-04T03:57:30;4.00;;;2.25;;
56269;SDS011;42176;43.240;27.880;2023-06-04T03:59:57;8.13;;;2.97;;
56269;SDS011;42176;43.240;27.880;2023-06-04T04:02:23;7.90;;;2.42;;
56269;SDS011;42176;43.240;27.880;2023-06-04T04:04:48;5.95;;;2.95;;
56269;SDS011;42176;43.240;27.880;2023-06-04T04:07:14;3.58;;;2.45;;
56269;SDS011;42176;43.240;27.880;2023-06-04T04:09:40;3.90;;;2.47;;
56269;SDS011;42176;43.240;27.880;2023-06-04T04:12:06;7.05;;;2.67;;
56269;SDS011;42176;43.240;27.880;2023-06-04T04:14:32;7.95;;;2.50;;
56269;SDS011;42176;43.240;27.880;2023-06-04T04:16:57;5.18;;;2.90;;
56269;SDS011;42176;43.240;27.880;2023-06-04T04:19:22;6.53;;;2.47;;
56269;SDS011;42176;43.240;27.880;2023-06-04T04:21:48;3.22;;;2.10;;
56269;SDS011;42176;43.240;27.880;2023-06-04T04:24:26;5.28;;;2.17;;
56269;SDS011;42176;43.240;27.880;2023-06-04T04:26:53;3.05;;;1.92;;
56269;SDS011;42176;43.240;27.880;2023-06-04T04:29:19;6.10;;;2.20;;
56269;SDS011;42176;43.240;27.880;2023-06-04T04:31:50;2.85;;;2.22;;
56269;SDS011;42176;43.240;27.880;2023-06-04T04:34:17;3.03;;;2.03;;
56269;SDS011;42176;43.240;27.880;2023-06-04T04:36:46;8.50;;;2.03;;
56269;SDS011;42176;43.240;27.880;2023-06-04T04:39:17;3.53;;;2.13;;
56269;SDS011;42176;43.240;27.880;2023-06-04T04:41:47;5.05;;;1.45;;
56269;SDS011;42176;43.240;27.880;2023-06-04T04:44:12;4.72;;;2.05;;
56269;SDS011;42176;43.240;27.880;2023-06-04T04:46:38;3.70;;;1.45;;
56269;SDS011;42176;43.240;27.880;2023-06-04T04:49:03;5.82;;;2.17;;
56269;SDS011;42176;43.240;27.880;2023-06-04T04:51:29;4.22;;;1.60;;
56269;SDS011;42176;43.240;27.880;2023-06-04T04:53:54;2.80;;;1.77;;
56269;SDS011;42176;43.240;27.880;2023-06-04T04:56:20;3.10;;;1.95;;
56269;SDS011;42176;43.240;27.880;2023-06-04T04:58:47;1.77;;;1.35;;
56269;SDS011;42176;43.240;27.880;2023-06-04T05:01:13;6.40;;;1.55;;
56269;SDS011;42176;43.240;27.880;2023-06-04T05:03:38;2.78;;;2.13;;
56269;SDS011;42176;43.240;27.880;2023-06-04T05:06:04;6.15;;;2.47;;
56269;SDS011;42176;43.240;27.880;2023-06-04T05:08:30;4.25;;;1.42;;
56269;SDS011;42176;43.240;27.880;2023-06-04T05:10:55;6.80;;;1.83;;
56269;SDS011;42176;43.240;27.880;2023-06-04T05:13:20;4.43;;;1.50;;
56269;SDS011;42176;43.240;27.880;2023-06-04T05:15:47;7.32;;;1.70;;
56269;SDS011;42176;43.240;27.880;2023-06-04T05:18:13;11.02;;;2.28;;
56269;SDS011;42176;43.240;27.880;2023-06-04T05:20:41;7.65;;;1.92;;
56269;SDS011;42176;43.240;27.880;2023-06-04T05:23:06;3.47;;;1.58;;
56269;SDS011;42176;43.240;27.880;2023-06-04T05:25:32;5.22;;;1.90;;
56269;SDS011;42176;43.240;27.880;2023-06-04T05:27:57;2.85;;;1.50;;
56269;SDS011;42176;43.240;27.880;2023-06-04T05:30:23;2.03;;;1.23;;
56269;SDS011;42176;43.240;27.880;2023-06-04T05:32:48;2.47;;;1.00;;
56269;SDS011;42176;43.240;27.880;2023-06-04T05:35:15;5.03;;;1.40;;
56269;SDS011;42176;43.240;27.880;2023-06-04T05:37:41;3.15;;;1.20;;
56269;SDS011;42176;43.240;27.880;2023-06-04T05:40:07;2.05;;;1.50;;
56269;SDS011;42176;43.240;27.880;2023-06-04T05:42:34;4.47;;;1.33;;
56269;SDS011;42176;43.240;27.880;2023-06-04T05:45:00;3.83;;;1.45;;
56269;SDS011;42176;43.240;27.880;2023-06-04T05:47:26;7.53;;;1.50;;
56269;SDS011;42176;43.240;27.880;2023-06-04T05:49:53;3.92;;;1.23;;
56269;SDS011;42176;43.240;27.880;2023-06-04T05:52:19;5.50;;;1.40;;
56269;SDS011;42176;43.240;27.880;2023-06-04T05:54:44;2.10;;;1.35;;
56269;SDS011;42176;43.240;27.880;2023-06-04T05:57:10;2.35;;;1.13;;
56269;SDS011;42176;43.240;27.880;2023-06-04T05:59:35;3.95;;;1.02;;
56269;SDS011;42176;43.240;27.880;2023-06-04T06:02:01;1.40;;;0.88;;
56269;SDS011;42176;43.240;27.880;2023-06-04T06:04:27;4.10;;;1.20;;
56269;SDS011;42176;43.240;27.880;2023-06-04T06:06:53;4.72;;;1.30;;
56269;SDS011;42176;43.240;27.880;2023-06-04T06:09:19;1.52;;;1.35;;
56269;SDS011;42176;43.240;27.880;2023-06-04T06:11:45;2.63;;;1.30;;
56269;SDS011;42176;43.240;27.880;2023-06-04T06:14:10;3.30;;;1.25;;
56269;SDS011;42176;43.240;27.880;2023-06-04T06:16:36;3.58;;;1.15;;
56269;SDS011;42176;43.240;27.880;2023-06-04T06:19:01;1.85;;;0.70;;
56269;SDS011;42176;43.240;27.880;2023-06-04T06:21:27;4.60;;;1.33;;
56269;SDS011;42176;43.240;27.880;2023-06-04T06:23:55;1.27;;;1.20;;
56269;SDS011;42176;43.240;27.880;2023-06-04T06:26:21;2.65;;;1.00;;
56269;SDS011;42176;43.240;27.880;2023-06-04T06:28:47;5.93;;;1.45;;
56269;SDS011;42176;43.240;27.880;2023-06-04T06:31:13;2.90;;;0.90;;
56269;SDS011;42176;43.240;27.880;2023-06-04T06:33:38;5.85;;;1.63;;
56269;SDS011;42176;43.240;27.880;2023-06-04T06:36:06;4.05;;;1.45;;
56269;SDS011;42176;43.240;27.880;2023-06-04T06:38:33;4.10;;;1.40;;
56269;SDS011;42176;43.240;27.880;2023-06-04T06:40:58;5.53;;;1.05;;
56269;SDS011;42176;43.240;27.880;2023-06-04T06:43:24;4.30;;;1.20;;
56269;SDS011;42176;43.240;27.880;2023-06-04T06:45:49;2.88;;;1.00;;
56269;SDS011;42176;43.240;27.880;2023-06-04T06:48:15;3.67;;;1.13;;
56269;SDS011;42176;43.240;27.880;2023-06-04T06:50:40;3.30;;;1.23;;
56269;SDS011;42176;43.240;27.880;2023-06-04T06:53:05;4.22;;;1.25;;
56269;SDS011;42176;43.240;27.880;2023-06-04T06:55:31;6.28;;;1.20;;
56269;SDS011;42176;43.240;27.880;2023-06-04T06:57:58;3.50;;;1.38;;
56269;SDS011;42176;43.240;27.880;2023-06-04T07:00:23;2.25;;;1.33;;
56269;SDS011;42176;43.240;27.880;2023-06-04T07:02:49;4.60;;;1.33;;
56269;SDS011;42176;43.240;27.880;2023-06-04T07:05:14;5.47;;;1.40;;
56269;SDS011;42176;43.240;27.880;2023-06-04T07:07:42;1.25;;;0.85;;
56269;SDS011;42176;43.240;27.880;2023-06-04T07:10:08;3.92;;;1.90;;
56269;SDS011;42176;43.240;27.880;2023-06-04T07:12:34;4.38;;;2.38;;
56269;SDS011;42176;43.240;27.880;2023-06-04T07:15:00;4.63;;;1.77;;
56269;SDS011;42176;43.240;27.880;2023-06-04T07:17:25;2.90;;;1.20;;
56269;SDS011;42176;43.240;27.880;2023-06-04T07:19:51;3.42;;;1.30;;
56269;SDS011;42176;43.240;27.880;2023-06-04T07:22:16;10.07;;;2.63;;
56269;SDS011;42176;43.240;27.880;2023-06-04T07:24:42;3.20;;;1.75;;
56269;SDS011;42176;43.240;27.880;2023-06-04T07:27:13;3.92;;;1.70;;
56269;SDS011;42176;43.240;27.880;2023-06-04T07:29:42;4.15;;;1.67;;
56269;SDS011;42176;43.240;27.880;2023-06-04T07:32:08;6.70;;;1.80;;
56269;SDS011;42176;43.240;27.880;2023-06-04T07:34:34;3.80;;;1.50;;
56269;SDS011;42176;43.240;27.880;2023-06-04T07:36:59;4.20;;;1.70;;
56269;SDS011;42176;43.240;27.880;2023-06-04T07:39:26;5.32;;;1.95;;
56269;SDS011;42176;43.240;27.880;2023-06-04T07:41:51;5.35;;;1.77;;
56269;SDS011;42176;43.240;27.880;2023-06-04T07:44:16;4.70;;;2.22;;
56269;SDS011;42176;43.240;27.880;2023-06-04T07:46:43;5.30;;;1.85;;
56269;SDS011;42176;43.240;27.880;2023-06-04T07:49:09;2.10;;;1.63;;
56269;SDS011;42176;43.240;27.880;2023-06-04T07:51:34;8.38;;;3.20;;
56269;SDS011;42176;43.240;27.880;2023-06-04T07:54:00;2.08;;;1.65;;
56269;SDS011;42176;43.240;27.880;2023-06-04T07:56:27;4.10;;;2.20;;
56269;SDS011;42176;43.240;27.880;2023-06-04T07:58:52;6.20;;;2.75;;
56269;SDS011;42176;43.240;27.880;2023-06-04T08:01:18;3.67;;;1.50;;
56269;SDS011;42176;43.240;27.880;2023-06-04T08:03:43;4.00;;;2.10;;
56269;SDS011;42176;43.240;27.880;2023-06-04T08:06:09;4.15;;;2.25;;
56269;SDS011;42176;43.240;27.880;2023-06-04T08:08:35;3.78;;;1.83;;
56269;SDS011;42176;43.240;27.880;2023-06-04T08:11:01;4.93;;;2.42;;
56269;SDS011;42176;43.240;27.880;2023-06-04T08:13:27;3.17;;;2.10;;
56269;SDS011;42176;43.240;27.880;2023-06-04T08:15:53;2.53;;;1.52;;
56269;SDS011;42176;43.240;27.880;2023-06-04T08:18:18;2.75;;;1.95;;
56269;SDS011;42176;43.240;27.880;2023-06-04T08:20:44;4.82;;;1.80;;
56269;SDS011;42176;43.240;27.880;2023-06-04T08:23:09;2.78;;;1.80;;
56269;SDS011;42176;43.240;27.880;2023-06-04T08:25:34;4.63;;;1.80;;
56269;SDS011;42176;43.240;27.880;2023-06-04T08:28:00;6.15;;;2.10;;
56269;SDS011;42176;43.240;27.880;2023-06-04T08:30:26;6.07;;;2.00;;
56269;SDS011;42176;43.240;27.880;2023-06-04T08:32:53;1.70;;;1.60;;
56269;SDS011;42176;43.240;27.880;2023-06-04T08:35:18;4.40;;;1.67;;
56269;SDS011;42176;43.240;27.880;2023-06-04T08:37:44;4.10;;;1.90;;
56269;SDS011;42176;43.240;27.880;2023-06-04T08:40:09;7.40;;;2.75;;
56269;SDS011;42176;43.240;27.880;2023-06-04T08:42:40;3.47;;;1.80;;
56269;SDS011;42176;43.240;27.880;2023-06-04T08:45:11;2.05;;;1.58;;
56269;SDS011;42176;43.240;27.880;2023-06-04T08:47:39;2.85;;;1.60;;
56269;SDS011;42176;43.240;27.880;2023-06-04T08:50:13;3.38;;;1.70;;
56269;SDS011;42176;43.240;27.880;2023-06-04T08:52:42;4.28;;;2.30;;
56269;SDS011;42176;43.240;27.880;2023-06-04T08:55:08;6.18;;;1.88;;
56269;SDS011;42176;43.240;27.880;2023-06-04T08:57:36;3.22;;;1.42;;
56269;SDS011;42176;43.240;27.880;2023-06-04T09:00:03;1.77;;;1.60;;
56269;SDS011;42176;43.240;27.880;2023-06-04T09:02:30;3.60;;;1.67;;
56269;SDS011;42176;43.240;27.880;2023-06-04T09:04:56;7.35;;;1.70;;
56269;SDS011;42176;43.240;27.880;2023-06-04T09:07:22;2.90;;;1.42;;
56269;SDS011;42176;43.240;27.880;2023-06-04T09:09:48;7.93;;;1.63;;
56269;SDS011;42176;43.240;27.880;2023-06-04T09:12:17;1.95;;;1.50;;
56269;SDS011;42176;43.240;27.880;2023-06-04T09:14:48;2.45;;;1.60;;
56269;SDS011;42176;43.240;27.880;2023-06-04T09:17:15;4.65;;;1.73;;
56269;SDS011;42176;43.240;27.880;2023-06-04T09:19:46;2.57;;;1.33;;
56269;SDS011;42176;43.240;27.880;2023-06-04T09:22:11;2.80;;;1.20;;
56269;SDS011;42176;43.240;27.880;2023-06-04T09:27:09;5.38;;;1.80;;
56269;SDS011;42176;43.240;27.880;2023-06-04T09:29:51;3.70;;;1.48;;
56269;SDS011;42176;43.240;27.880;2023-06-04T09:32:24;4.63;;;1.40;;
56269;SDS011;42176;43.240;27.880;2023-06-04T09:34:54;3.67;;;1.58;;
56269;SDS011;42176;43.240;27.880;2023-06-04T09:37:22;1.73;;;1.20;;
56269;SDS011;42176;43.240;27.880;2023-06-04T09:39:55;3.50;;;1.25;;
56269;SDS011;42176;43.240;27.880;2023-06-04T09:42:21;4.70;;;1.38;;
56269;SDS011;42176;43.240;27.880;2023-06-04T09:44:49;2.17;;;1.40;;
56269;SDS011;42176;43.240;27.880;2023-06-04T09:47:15;3.03;;;1.30;;
56269;SDS011;42176;43.240;27.880;2023-06-04T09:49:44;3.42;;;1.25;;
56269;SDS011;42176;43.240;27.880;2023-06-04T09:52:11;3.17;;;1.20;;
56269;SDS011;42176;43.240;27.880;2023-06-04T09:54:40;1.63;;;1.17;;
56269;SDS011;42176;43.240;27.880;2023-06-04T09:57:18;6.30;;;1.65;;
56269;SDS011;42176;43.240;27.880;2023-06-04T09:59:45;3.30;;;1.05;;
56269;SDS011;42176;43.240;27.880;2023-06-04T10:02:11;5.15;;;1.70;;
56269;SDS011;42176;43.240;27.880;2023-06-04T10:04:41;3.45;;;1.05;;
56269;SDS011;42176;43.240;27.880;2023-06-04T10:07:08;5.65;;;1.10;;
56269;SDS011;42176;43.240;27.880;2023-06-04T10:09:38;7.45;;;0.82;;
56269;SDS011;42176;43.240;27.880;2023-06-04T10:12:10;2.85;;;1.10;;
56269;SDS011;42176;43.240;27.880;2023-06-04T10:14:41;4.88;;;1.40;;
56269;SDS011;42176;43.240;27.880;2023-06-04T10:17:14;5.50;;;1.42;;
56269;SDS011;42176;43.240;27.880;2023-06-04T10:19:43;5.05;;;1.27;;
56269;SDS011;42176;43.240;27.880;2023-06-04T10:22:10;3.83;;;1.80;;
56269;SDS011;42176;43.240;27.880;2023-06-04T10:24:39;2.67;;;1.20;;
56269;SDS011;42176;43.240;27.880;2023-06-04T10:27:05;1.23;;;0.93;;
56269;SDS011;42176;43.240;27.880;2023-06-04T10:29:36;1.73;;;1.33;;
56269;SDS011;42176;43.240;27.880;2023-06-04T10:32:02;1.80;;;1.33;;
56269;SDS011;42176;43.240;27.880;2023-06-04T10:34:28;1.52;;;1.27;;
56269;SDS011;42176;43.240;27.880;2023-06-04T10:36:54;3.47;;;1.20;;
56269;SDS011;42176;43.240;27.880;2023-06-04T10:39:26;4.20;;;1.30;;
56269;SDS011;42176;43.240;27.880;2023-06-04T10:42:00;2.42;;;1.15;;
56269;SDS011;42176;43.240;27.880;2023-06-04T10:44:27;4.72;;;1.10;;
56269;SDS011;42176;43.240;27.880;2023-06-04T10:46:54;2.40;;;1.35;;
56269;SDS011;42176;43.240;27.880;2023-06-04T10:49:29;9.25;;;1.30;;
56269;SDS011;42176;43.240;27.880;2023-06-04T10:51:56;4.57;;;1.30;;
56269;SDS011;42176;43.240;27.880;2023-06-04T10:56:53;1.58;;;1.02;;
56269;SDS011;42176;43.240;27.880;2023-06-04T10:59:19;1.77;;;1.30;;
56269;SDS011;42176;43.240;27.880;2023-06-04T11:01:45;3.45;;;1.13;;
56269;SDS011;42176;43.240;27.880;2023-06-04T11:04:20;6.60;;;1.30;;
56269;SDS011;42176;43.240;27.880;2023-06-04T11:07:05;1.30;;;1.13;;
56269;SDS011;42176;43.240;27.880;2023-06-04T11:09:47;2.92;;;0.93;;
56269;SDS011;42176;43.240;27.880;2023-06-04T11:12:16;1.58;;;1.17;;
56269;SDS011;42176;43.240;27.880;2023-06-04T11:14:53;2.92;;;0.88;;
56269;SDS011;42176;43.240;27.880;2023-06-04T11:17:22;5.47;;;2.55;;
56269;SDS011;42176;43.240;27.880;2023-06-04T11:19:47;5.88;;;2.00;;
56269;SDS011;42176;43.240;27.880;2023-06-04T11:22:13;1.58;;;0.90;;
56269;SDS011;42176;43.240;27.880;2023-06-04T11:24:39;2.15;;;1.05;;
56269;SDS011;42176;43.240;27.880;2023-06-04T11:27:04;4.55;;;1.20;;
56269;SDS011;42176;43.240;27.880;2023-06-04T11:29:30;4.55;;;1.58;;
56269;SDS011;42176;43.240;27.880;2023-06-04T11:31:56;2.78;;;1.10;;
56269;SDS011;42176;43.240;27.880;2023-06-04T11:34:29;2.42;;;1.35;;
56269;SDS011;42176;43.240;27.880;2023-06-04T11:36:56;1.98;;;0.90;;
56269;SDS011;42176;43.240;27.880;2023-06-04T11:39:36;2.90;;;1.23;;
56269;SDS011;42176;43.240;27.880;2023-06-04T11:42:07;1.42;;;1.00;;
56269;SDS011;42176;43.240;27.880;2023-06-04T11:44:32;9.80;;;1.77;;
56269;SDS011;42176;43.240;27.880;2023-06-04T11:46:58;4.75;;;1.15;;
56269;SDS011;42176;43.240;27.880;2023-06-04T11:49:24;1.88;;;1.10;;
56269;SDS011;42176;43.240;27.880;2023-06-04T11:51:52;3.78;;;1.17;;
56269;SDS011;42176;43.240;27.880;2023-06-04T11:54:19;2.67;;;1.10;;
56269;SDS011;42176;43.240;27.880;2023-06-04T11:56:46;2.30;;;1.02;;
56269;SDS011;42176;43.240;27.880;2023-06-04T11:59:15;6.80;;;1.20;;
56269;SDS011;42176;43.240;27.880;2023-06-04T12:01:44;2.15;;;1.05;;
56269;SDS011;42176;43.240;27.880;2023-06-04T12:04:14;4.38;;;1.73;;
56269;SDS011;42176;43.240;27.880;2023-06-04T12:06:53;2.03;;;1.20;;
56269;SDS011;42176;43.240;27.880;2023-06-04T12:09:24;2.15;;;1.55;;
56269;SDS011;42176;43.240;27.880;2023-06-04T12:11:57;2.08;;;1.73;;
56269;SDS011;42176;43.240;27.880;2023-06-04T12:14:26;2.90;;;1.10;;
56269;SDS011;42176;43.240;27.880;2023-06-04T12:17:05;3.00;;;0.90;;
56269;SDS011;42176;43.240;27.880;2023-06-04T12:19:31;1.70;;;0.80;;
56269;SDS011;42176;43.240;27.880;2023-06-04T12:22:05;6.18;;;1.10;;
56269;SDS011;42176;43.240;27.880;2023-06-04T12:24:32;2.45;;;0.95;;
56269;SDS011;42176;43.240;27.880;2023-06-04T12:27:06;3.72;;;1.00;;
56269;SDS011;42176;43.240;27.880;2023-06-04T12:29:33;4.20;;;1.15;;
56269;SDS011;42176;43.240;27.880;2023-06-04T12:34:28;3.50;;;1.02;;
56269;SDS011;42176;43.240;27.880;2023-06-04T12:36:54;2.05;;;0.70;;
56269;SDS011;42176;43.240;27.880;2023-06-04T12:39:19;3.28;;;0.82;;
56269;SDS011;42176;43.240;27.880;2023-06-04T12:41:45;1.73;;;0.75;;
56269;SDS011;42176;43.240;27.880;2023-06-04T12:44:11;4.47;;;1.00;;
56269;SDS011;42176;43.240;27.880;2023-06-04T12:46:37;0.80;;;0.70;;
56269;SDS011;42176;43.240;27.880;2023-06-04T12:49:02;3.45;;;0.90;;
56269;SDS011;42176;43.240;27.880;2023-06-04T12:51:28;1.50;;;0.63;;
56269;SDS011;42176;43.240;27.880;2023-06-04T12:53:53;3.15;;;1.23;;
56269;SDS011;42176;43.240;27.880;2023-06-04T12:56:19;3.75;;;1.10;;
56269;SDS011;42176;43.240;27.880;2023-06-04T12:58:44;3.47;;;0.77;;
56269;SDS011;42176;43.240;27.880;2023-06-04T13:01:10;2.85;;;0.85;;
56269;SDS011;42176;43.240;27.880;2023-06-04T13:03:36;5.45;;;1.30;;
56269;SDS011;42176;43.240;27.880;2023-06-04T13:06:03;4.22;;;1.00;;
56269;SDS011;42176;43.240;27.880;2023-06-04T13:08:29;5.60;;;0.68;;
56269;SDS011;42176;43.240;27.880;2023-06-04T13:10:55;2.33;;;0.95;;
56269;SDS011;42176;43.240;27.880;2023-06-04T13:13:20;5.72;;;1.30;;
56269;SDS011;42176;43.240;27.880;2023-06-04T13:15:46;3.65;;;1.10;;
56269;SDS011;42176;43.240;27.880;2023-06-04T13:18:11;4.78;;;0.90;;
56269;SDS011;42176;43.240;27.880;2023-06-04T13:20:37;4.13;;;0.90;;
56269;SDS011;42176;43.240;27.880;2023-06-04T13:23:04;5.75;;;1.60;;
56269;SDS011;42176;43.240;27.880;2023-06-04T13:25:30;2.92;;;1.17;;
56269;SDS011;42176;43.240;27.880;2023-06-04T13:27:58;6.82;;;1.13;;
56269;SDS011;42176;43.240;27.880;2023-06-04T13:30:24;5.57;;;1.27;;
56269;SDS011;42176;43.240;27.880;2023-06-04T13:32:49;2.22;;;0.70;;
56269;SDS011;42176;43.240;27.880;2023-06-04T13:35:15;5.43;;;1.63;;
56269;SDS011;42176;43.240;27.880;2023-06-04T13:37:40;4.63;;;1.23;;
56269;SDS011;42176;43.240;27.880;2023-06-04T13:40:06;3.17;;;1.13;;
56269;SDS011;42176;43.240;27.880;2023-06-04T13:42:32;9.15;;;0.85;;
56269;SDS011;42176;43.240;27.880;2023-06-04T13:44:58;3.97;;;1.00;;
56269;SDS011;42176;43.240;27.880;2023-06-04T13:47:24;8.52;;;0.88;;
56269;SDS011;42176;43.240;27.880;2023-06-04T13:49:49;4.40;;;1.50;;
56269;SDS011;42176;43.240;27.880;2023-06-04T13:52:15;7.15;;;1.50;;
56269;SDS011;42176;43.240;27.880;2023-06-04T13:54:40;5.82;;;0.75;;
56269;SDS011;42176;43.240;27.880;2023-06-04T13:57:06;8.30;;;1.30;;
56269;SDS011;42176;43.240;27.880;2023-06-04T13:59:34;2.35;;;0.98;;
56269;SDS011;42176;43.240;27.880;2023-06-04T14:01:59;3.95;;;1.10;;
56269;SDS011;42176;43.240;27.880;2023-06-04T14:04:25;5.32;;;1.15;;
56269;SDS011;42176;43.240;27.880;2023-06-04T14:06:50;6.72;;;1.25;;
56269;SDS011;42176;43.240;27.880;2023-06-04T14:09:16;1.38;;;0.90;;
56269;SDS011;42176;43.240;27.880;2023-06-04T14:11:41;4.03;;;1.00;;
56269;SDS011;42176;43.240;27.880;2023-06-04T14:14:07;3.40;;;0.90;;
56269;SDS011;42176;43.240;27.880;2023-06-04T14:16:32;5.72;;;1.55;;
56269;SDS011;42176;43.240;27.880;2023-06-04T14:18:58;3.17;;;0.77;;
56269;SDS011;42176;43.240;27.880;2023-06-04T14:21:24;3.38;;;1.10;;
56269;SDS011;42176;43.240;27.880;2023-06-04T14:23:51;2.92;;;1.40;;
56269;SDS011;42176;43.240;27.880;2023-06-04T14:26:17;2.28;;;0.95;;
56269;SDS011;42176;43.240;27.880;2023-06-04T14:28:43;7.20;;;1.13;;
56269;SDS011;42176;43.240;27.880;2023-06-04T14:31:09;4.38;;;1.17;;
56269;SDS011;42176;43.240;27.880;2023-06-04T14:33:35;2.40;;;1.05;;
56269;SDS011;42176;43.240;27.880;2023-06-04T14:36:02;3.33;;;1.10;;
56269;SDS011;42176;43.240;27.880;2023-06-04T14:38:28;4.05;;;1.00;;
56269;SDS011;42176;43.240;27.880;2023-06-04T14:40:54;6.38;;;1.13;;
56269;SDS011;42176;43.240;27.880;2023-06-04T14:43:21;3.63;;;0.85;;